createdAt,value
2022-09-07T00:01:24.192Z,18.30
2022-09-07T00:03:28.419Z,18.40
2022-09-07T00:05:31.400Z,18.40
2022-09-07T00:07:34.139Z,18.40
2022-09-07T00:09:37.216Z,18.40
2022-09-07T00:11:39.971Z,18.40
2022-09-07T00:13:43.314Z,18.40
2022-09-07T00:15:46.133Z,18.30
2022-09-07T00:17:48.875Z,18.30
2022-09-07T00:19:52.943Z,18.30
2022-09-07T00:21:55.688Z,18.40
2022-09-07T00:23:58.525Z,18.30
2022-09-07T00:26:01.693Z,18.30
2022-09-07T00:28:04.432Z,18.40
2022-09-07T00:30:07.859Z,18.30
2022-09-07T00:32:10.598Z,18.30
2022-09-07T00:34:13.350Z,18.30
2022-09-07T00:36:17.730Z,18.20
2022-09-07T00:38:20.552Z,18.20
2022-09-07T00:40:23.319Z,18.20
2022-09-07T00:42:26.059Z,18.20
2022-09-07T00:44:59.812Z,18.20
2022-09-07T00:47:02.548Z,18.10
2022-09-07T00:49:08.226Z,18.20
2022-09-07T00:51:12.858Z,18.20
2022-09-07T00:53:18.572Z,18.10
2022-09-07T00:55:21.819Z,18.10
2022-09-07T00:57:24.556Z,18.10
2022-09-07T00:59:29.875Z,18.10
2022-09-07T01:01:33.491Z,18.10
2022-09-07T01:03:39.213Z,18.10
2022-09-07T01:05:44.315Z,18.10
2022-09-07T01:07:47.036Z,18.10
2022-09-07T01:09:51.096Z,18.20
2022-09-07T01:11:54.731Z,18.10
2022-09-07T01:13:58.408Z,18.10
2022-09-07T01:16:04.853Z,18.20
2022-09-07T01:18:10.352Z,18.20
2022-09-07T01:20:41.514Z,18.20
2022-09-07T01:23:06.288Z,18.20
2022-09-07T01:25:11.509Z,18.10
2022-09-07T01:27:39.721Z,18.20
2022-09-07T01:29:43.293Z,18.20
2022-09-07T01:31:49.873Z,18.20
2022-09-07T01:33:54.950Z,18.10
2022-09-07T01:36:01.445Z,18.10
2022-09-07T01:38:06.779Z,18.20
2022-09-07T01:40:11.910Z,18.10
2022-09-07T01:42:15.704Z,18.10
2022-09-07T01:44:21.696Z,18.10
2022-09-07T01:46:26.398Z,18.10
2022-09-07T01:48:29.202Z,18.10
2022-09-07T01:50:34.184Z,18.10
2022-09-07T01:52:39.049Z,18.10
2022-09-07T01:54:43.068Z,18.10
2022-09-07T01:56:46.712Z,18.10
2022-09-07T01:58:51.661Z,18.10
2022-09-07T02:00:56.478Z,18.10
2022-09-07T02:03:01.558Z,18.10
2022-09-07T02:05:05.702Z,18.00
2022-09-07T02:07:11.341Z,18.10
2022-09-07T02:09:15.359Z,18.10
2022-09-07T02:11:19.319Z,18.10
2022-09-07T02:13:23.496Z,18.00
2022-09-07T02:15:28.781Z,18.00
2022-09-07T02:17:34.768Z,18.00
2022-09-07T02:19:38.769Z,18.10
2022-09-07T02:21:43.319Z,18.00
2022-09-07T02:23:49.349Z,18.00
2022-09-07T02:25:55.322Z,18.00
2022-09-07T02:28:00.116Z,18.00
2022-09-07T02:30:02.851Z,18.00
2022-09-07T02:32:05.696Z,18.00
2022-09-07T02:34:09.757Z,18.10
2022-09-07T02:36:12.522Z,18.00
2022-09-07T02:38:15.236Z,18.00
2022-09-07T02:40:18.116Z,18.00
2022-09-07T02:42:20.869Z,18.00
2022-09-07T02:44:25.795Z,18.00
2022-09-07T02:46:36.248Z,18.00
2022-09-07T02:48:42.883Z,18.00
2022-09-07T02:50:58.637Z,18.00
2022-09-07T02:53:11.171Z,18.00
2022-09-07T02:55:20.057Z,17.90
2022-09-07T02:57:26.635Z,18.00
2022-09-07T02:59:38.160Z,18.00
2022-09-07T03:01:44.503Z,17.90
2022-09-07T03:03:48.739Z,17.90
2022-09-07T03:05:53.393Z,17.90
2022-09-07T03:08:01.093Z,17.80
2022-09-07T03:10:04.253Z,17.90
2022-09-07T03:12:08.420Z,17.90
2022-09-07T03:14:15.376Z,17.90
2022-09-07T03:16:18.213Z,17.90
2022-09-07T03:18:21.029Z,17.90
2022-09-07T03:20:23.893Z,18.00
2022-09-07T03:22:26.621Z,18.00
2022-09-07T03:24:30.667Z,18.00
2022-09-07T03:26:33.409Z,18.00
2022-09-07T03:28:36.130Z,18.00
2022-09-07T03:30:43.329Z,18.00
2022-09-07T03:32:46.127Z,18.00
2022-09-07T03:34:49.383Z,18.00
2022-09-07T03:36:52.110Z,18.00
2022-09-07T03:38:54.815Z,18.00
2022-09-07T03:41:02.575Z,18.00
2022-09-07T03:43:05.323Z,18.00
2022-09-07T03:45:09.246Z,17.90
2022-09-07T03:47:11.959Z,17.90
2022-09-07T03:49:15.787Z,17.90
2022-09-07T03:51:19.037Z,18.00
2022-09-07T03:53:21.761Z,17.90
2022-09-07T03:55:24.488Z,17.90
2022-09-07T03:57:28.519Z,17.80
2022-09-07T03:59:31.237Z,17.80
2022-09-07T04:01:34.049Z,17.80
2022-09-07T04:03:36.811Z,17.80
2022-09-07T04:05:39.597Z,17.80
2022-09-07T04:07:42.652Z,17.90
2022-09-07T04:09:45.394Z,17.90
2022-09-07T04:11:48.097Z,17.90
2022-09-07T04:13:52.139Z,17.90
2022-09-07T04:15:54.931Z,17.90
2022-09-07T04:17:57.950Z,17.90
2022-09-07T04:20:00.718Z,17.90
2022-09-07T04:22:03.434Z,17.90
2022-09-07T04:24:06.714Z,17.90
2022-09-07T04:26:14.388Z,17.90
2022-09-07T04:28:17.566Z,17.90
2022-09-07T04:30:21.614Z,17.90
2022-09-07T04:32:24.368Z,17.90
2022-09-07T04:34:27.097Z,17.90
2022-09-07T04:36:29.853Z,17.90
2022-09-07T04:38:32.694Z,17.90
2022-09-07T04:40:36.005Z,17.90
2022-09-07T04:42:38.761Z,17.90
2022-09-07T04:44:41.501Z,17.90
2022-09-07T04:46:45.567Z,17.90
2022-09-07T04:48:49.012Z,17.90
2022-09-07T04:50:52.095Z,17.90
2022-09-07T04:52:55.145Z,18.00
2022-09-07T04:54:57.900Z,18.00
2022-09-07T04:57:00.637Z,18.00
2022-09-07T04:59:03.591Z,18.00
2022-09-07T05:01:07.096Z,18.00
2022-09-07T05:03:11.199Z,18.00
2022-09-07T05:05:14.171Z,18.00
2022-09-07T05:07:17.222Z,17.90
2022-09-07T05:09:19.963Z,17.90
2022-09-07T05:11:28.335Z,17.90
2022-09-07T05:13:32.645Z,17.90
2022-09-07T05:15:35.385Z,17.90
2022-09-07T05:17:38.101Z,17.90
2022-09-07T05:19:42.167Z,17.80
2022-09-07T05:21:44.883Z,17.80
2022-09-07T05:23:50.144Z,17.80
2022-09-07T05:25:52.852Z,17.80
2022-09-07T05:27:55.622Z,17.80
2022-09-07T05:32:06.321Z,17.70
2022-09-07T05:36:33.392Z,17.80
2022-09-07T05:38:36.190Z,17.70
2022-09-07T05:40:40.780Z,17.60
2022-09-07T05:42:43.706Z,17.60
2022-09-07T05:44:46.580Z,17.50
2022-09-07T05:46:49.334Z,17.50
2022-09-07T05:48:52.097Z,17.50
2022-09-07T05:50:54.812Z,17.50
2022-09-07T05:52:59.372Z,17.50
2022-09-07T05:55:13.399Z,17.50
2022-09-07T05:57:24.829Z,17.50
2022-09-07T05:59:27.560Z,17.50
2022-09-07T06:01:30.267Z,17.50
2022-09-07T06:03:33.047Z,17.60
2022-09-07T06:05:35.817Z,17.60
2022-09-07T06:07:38.853Z,17.60
2022-09-07T06:12:06.048Z,17.70
2022-09-07T06:14:08.781Z,17.80
2022-09-07T06:16:12.552Z,17.90
2022-09-07T06:18:15.296Z,17.90
2022-09-07T06:20:18.151Z,17.90
2022-09-07T06:22:20.869Z,17.90
2022-09-07T06:24:23.599Z,17.90
2022-09-07T06:26:27.654Z,17.90
2022-09-07T06:28:30.438Z,17.90
2022-09-07T06:30:33.798Z,17.90
2022-09-07T06:32:45.234Z,17.90
2022-09-07T06:34:48.233Z,17.90
2022-09-07T06:36:50.985Z,17.90
2022-09-07T06:38:55.027Z,17.90
2022-09-07T06:43:25.798Z,18.00
2022-09-07T06:45:28.602Z,17.90
2022-09-07T06:47:31.391Z,18.00
2022-09-07T06:49:34.136Z,18.10
2022-09-07T06:51:37.130Z,18.20
2022-09-07T06:53:41.788Z,18.20
2022-09-07T06:55:47.317Z,18.30
2022-09-07T06:57:52.933Z,18.40
2022-09-07T06:59:57.009Z,18.40
2022-09-07T07:01:59.752Z,18.50
2022-09-07T07:04:02.740Z,18.50
2022-09-07T07:06:05.658Z,18.60
2022-09-07T07:08:08.391Z,18.70
2022-09-07T07:10:11.129Z,18.70
2022-09-07T07:12:13.835Z,18.70
2022-09-07T07:14:16.796Z,18.80
2022-09-07T07:16:20.936Z,18.80
2022-09-07T07:18:23.684Z,18.90
2022-09-07T07:20:26.518Z,19.00
2022-09-07T07:22:45.996Z,19.10
2022-09-07T07:24:49.861Z,19.10
2022-09-07T07:26:52.640Z,19.20
2022-09-07T07:31:06.081Z,19.40
2022-09-07T07:33:13.132Z,19.50
2022-09-07T07:35:15.992Z,19.50
2022-09-07T07:37:18.713Z,19.70
2022-09-07T07:43:56.981Z,20.20
2022-09-07T07:46:01.227Z,20.50
2022-09-07T07:48:06.899Z,20.70
2022-09-07T07:52:50.576Z,21.30
2022-09-07T07:54:53.500Z,21.40
2022-09-07T07:56:56.216Z,21.60
2022-09-07T07:58:58.941Z,21.60
2022-09-07T08:01:02.664Z,21.60
2022-09-07T08:03:05.468Z,21.70
2022-09-07T08:05:08.967Z,22.00
2022-09-07T08:07:13.061Z,22.10
2022-09-07T08:09:15.879Z,22.30
2022-09-07T08:11:19.561Z,22.40
2022-09-07T08:13:22.263Z,22.50
2022-09-07T08:15:24.957Z,22.50
2022-09-07T08:17:27.638Z,22.50
2022-09-07T08:19:30.341Z,22.50
2022-09-07T08:21:33.011Z,22.50
2022-09-07T08:23:37.145Z,22.80
2022-09-07T08:25:39.950Z,22.50
2022-09-07T08:27:42.615Z,22.60
2022-09-07T08:29:45.425Z,22.50
2022-09-07T08:31:48.370Z,22.50
2022-09-07T08:33:51.133Z,22.50
2022-09-07T08:35:57.987Z,22.70
2022-09-07T08:38:00.989Z,22.60
2022-09-07T08:40:05.654Z,22.80
2022-09-07T08:42:32.125Z,23.10
2022-09-07T08:44:35.795Z,23.30
2022-09-07T08:46:41.167Z,23.60
2022-09-07T08:48:44.242Z,23.80
2022-09-07T08:50:51.101Z,24.20
2022-09-07T08:52:55.542Z,24.10
2022-09-07T08:55:01.435Z,24.50
2022-09-07T08:57:21.395Z,24.80
2022-09-07T08:59:25.435Z,25.20
2022-09-07T09:01:31.336Z,25.30
2022-09-07T09:03:35.011Z,25.40
2022-09-07T09:06:01.541Z,25.50
2022-09-07T09:08:11.912Z,25.70
2022-09-07T09:10:19.551Z,26.00
2022-09-07T09:12:27.242Z,25.70
2022-09-07T09:14:37.415Z,25.20
2022-09-07T09:16:43.212Z,25.50
2022-09-07T09:18:52.629Z,25.60
2022-09-07T09:20:56.032Z,25.50
2022-09-07T09:23:02.892Z,25.70
2022-09-07T09:25:07.985Z,26.20
2022-09-07T09:27:10.730Z,27.50
2022-09-07T09:29:15.401Z,27.40
2022-09-07T09:31:19.286Z,27.50
2022-09-07T09:33:23.232Z,27.70
2022-09-07T09:35:29.898Z,27.40
2022-09-07T09:37:36.740Z,27.00
2022-09-07T09:39:39.970Z,26.90
2022-09-07T09:41:42.670Z,26.40
2022-09-07T09:43:46.688Z,25.80
2022-09-07T09:48:18.977Z,25.90
2022-09-07T09:52:51.575Z,25.80
2022-09-07T09:55:03.433Z,26.10
2022-09-07T09:57:16.147Z,25.90
2022-09-07T10:04:27.493Z,26.70
2022-09-07T10:06:30.187Z,26.60
2022-09-07T10:08:33.996Z,26.50
2022-09-07T10:10:36.689Z,26.50
2022-09-07T10:12:39.379Z,26.20
2022-09-07T10:14:44.208Z,26.50
2022-09-07T10:16:48.224Z,28.10
2022-09-07T10:18:56.217Z,28.80
2022-09-07T10:21:24.908Z,27.90
2022-09-07T10:23:27.578Z,27.70
2022-09-07T10:25:32.173Z,27.80
2022-09-07T10:27:36.245Z,27.50
2022-09-07T10:29:38.942Z,27.70
2022-09-07T10:31:49.540Z,28.50
2022-09-07T10:36:20.469Z,30.10
2022-09-07T10:38:25.027Z,31.10
2022-09-07T10:40:34.187Z,31.50
2022-09-07T10:42:37.475Z,31.40
2022-09-07T10:44:46.562Z,32.10
2022-09-07T10:46:59.413Z,32.20
2022-09-07T10:49:12.875Z,32.30
2022-09-07T10:51:17.849Z,32.60
2022-09-07T10:53:45.194Z,32.30
2022-09-07T10:55:52.627Z,31.30
2022-09-07T10:58:01.835Z,30.30
2022-09-07T11:00:09.701Z,29.40
2022-09-07T11:02:17.224Z,29.20
2022-09-07T11:04:33.363Z,28.50
2022-09-07T11:06:38.674Z,29.10
2022-09-07T11:12:00.651Z,29.30
2022-09-07T11:14:09.371Z,28.80
2022-09-07T11:16:50.621Z,29.60
2022-09-07T11:18:39.821Z,29.40
2022-09-07T11:20:45.273Z,29.00
2022-09-07T11:22:50.347Z,29.30
2022-09-07T11:27:21.546Z,29.50
2022-09-07T11:29:29.739Z,29.70
2022-09-07T11:31:36.901Z,29.60
2022-09-07T11:36:18.246Z,29.70
2022-09-07T11:38:28.979Z,30.10
2022-09-07T11:40:32.343Z,30.00
2022-09-07T11:42:46.038Z,29.70
2022-09-07T11:44:51.238Z,29.20
2022-09-07T11:46:55.715Z,29.50
2022-09-07T11:48:59.730Z,29.70
2022-09-07T11:51:04.127Z,30.00
2022-09-07T11:53:08.695Z,29.70
2022-09-07T11:55:12.009Z,29.20
2022-09-07T11:57:48.446Z,29.00
2022-09-07T11:59:58.321Z,28.90
2022-09-07T12:02:11.382Z,29.40
2022-09-07T12:04:36.185Z,29.10
2022-09-07T12:06:54.499Z,29.30
2022-09-07T12:09:06.608Z,29.30
2022-09-07T12:11:26.229Z,29.70
2022-09-07T12:13:56.232Z,29.90
2022-09-07T12:16:01.062Z,30.00
2022-09-07T12:18:15.126Z,29.70
2022-09-07T12:20:20.043Z,29.30
2022-09-07T12:22:23.063Z,29.00
2022-09-07T12:24:34.109Z,29.00
2022-09-07T12:26:52.161Z,29.50
2022-09-07T12:29:22.583Z,29.70
2022-09-07T12:31:57.330Z,29.60
2022-09-07T12:34:34.519Z,29.80
2022-09-07T12:36:50.419Z,29.10
2022-09-07T12:39:21.720Z,30.30
2022-09-07T12:41:25.839Z,30.20
2022-09-07T12:43:52.717Z,30.00
2022-09-07T12:45:56.657Z,30.40
2022-09-07T12:48:00.117Z,30.40
2022-09-07T12:50:22.537Z,30.10
2022-09-07T12:52:48.641Z,30.40
2022-09-07T12:55:16.307Z,30.10
2022-09-07T12:57:31.612Z,30.90
2022-09-07T12:59:51.323Z,30.80
2022-09-07T13:01:57.328Z,31.30
2022-09-07T13:04:14.356Z,31.40
2022-09-07T13:09:10.390Z,31.80
2022-09-07T13:11:27.266Z,32.30
2022-09-07T13:15:53.594Z,33.10
2022-09-07T13:17:57.228Z,32.90
2022-09-07T13:20:17.928Z,32.00
2022-09-07T13:22:55.064Z,31.40
2022-09-07T13:24:59.721Z,30.60
2022-09-07T13:27:02.989Z,31.10
2022-09-07T13:29:05.734Z,31.90
2022-09-07T13:31:18.374Z,32.20
2022-09-07T13:33:44.297Z,32.80
2022-09-07T13:35:46.996Z,32.60
2022-09-07T13:37:52.402Z,33.20
2022-09-07T13:39:56.115Z,33.30
2022-09-07T13:42:00.317Z,33.30
2022-09-07T13:44:03.743Z,32.70
2022-09-07T13:46:09.181Z,32.10
2022-09-07T13:48:15.164Z,32.20
2022-09-07T13:50:23.268Z,31.90
2022-09-07T13:52:29.749Z,32.20
2022-09-07T13:54:42.400Z,32.40
2022-09-07T13:56:46.628Z,32.60
2022-09-07T13:58:52.177Z,32.80
2022-09-07T14:00:55.724Z,32.70
2022-09-07T14:02:58.548Z,32.90
2022-09-07T14:05:01.342Z,33.00
2022-09-07T14:07:04.279Z,32.90
2022-09-07T14:09:13.135Z,32.70
2022-09-07T14:11:19.622Z,32.60
2022-09-07T14:13:22.316Z,32.20
2022-09-07T14:15:28.913Z,32.20
2022-09-07T14:17:31.598Z,32.20
2022-09-07T14:19:37.691Z,32.30
2022-09-07T14:21:40.637Z,32.20
2022-09-07T14:23:43.299Z,32.20
2022-09-07T14:28:30.331Z,32.30
2022-09-07T14:30:34.506Z,32.10
2022-09-07T14:32:37.214Z,31.80
2022-09-07T14:34:39.892Z,31.40
2022-09-07T14:36:45.682Z,31.10
2022-09-07T14:39:04.522Z,31.30
2022-09-07T14:41:09.795Z,31.20
2022-09-07T14:43:27.588Z,31.00
2022-09-07T14:45:37.520Z,30.70
2022-09-07T14:47:40.675Z,30.70
2022-09-07T14:49:43.753Z,30.50
2022-09-07T14:51:48.460Z,30.20
2022-09-07T14:53:52.243Z,30.00
2022-09-07T14:56:01.863Z,30.00
2022-09-07T14:58:22.045Z,29.90
2022-09-07T15:00:30.698Z,29.80
2022-09-07T15:02:36.694Z,29.90
2022-09-07T15:04:39.581Z,29.90
2022-09-07T15:09:07.144Z,29.90
2022-09-07T15:13:35.031Z,29.80
2022-09-07T15:15:39.479Z,29.80
2022-09-07T15:17:43.976Z,29.60
2022-09-07T15:19:47.060Z,29.40
2022-09-07T15:21:49.939Z,29.10
2022-09-07T15:23:53.095Z,28.80
2022-09-07T15:25:55.790Z,28.60
2022-09-07T15:27:58.516Z,28.40
2022-09-07T15:30:01.189Z,28.10
2022-09-07T15:32:08.150Z,28.10
2022-09-07T15:34:13.296Z,28.00
2022-09-07T15:36:16.756Z,28.00
2022-09-07T15:41:03.790Z,27.90
2022-09-07T15:43:19.621Z,28.00
2022-09-07T15:45:23.212Z,28.10
2022-09-07T15:49:51.523Z,28.10
2022-09-07T15:52:05.071Z,28.20
2022-09-07T15:54:12.356Z,28.10
2022-09-07T15:56:16.290Z,28.00
2022-09-07T15:58:18.965Z,27.80
2022-09-07T16:00:21.786Z,27.80
2022-09-07T16:04:47.299Z,27.70
2022-09-07T16:06:51.414Z,27.70
2022-09-07T16:08:54.165Z,27.60
2022-09-07T16:11:05.451Z,27.60
2022-09-07T16:13:11.920Z,27.60
2022-09-07T16:15:19.184Z,27.50
2022-09-07T16:17:28.055Z,27.40
2022-09-07T16:19:41.014Z,27.30
2022-09-07T16:21:44.081Z,27.20
2022-09-07T16:23:49.855Z,27.20
2022-09-07T16:25:56.167Z,27.20
2022-09-07T16:27:58.843Z,27.00
2022-09-07T16:30:01.518Z,27.00
2022-09-07T16:34:27.763Z,26.80
2022-09-07T16:36:30.782Z,26.70
2022-09-07T16:38:48.853Z,26.70
2022-09-07T16:40:52.947Z,26.60
2022-09-07T16:42:55.619Z,26.50
2022-09-07T16:46:02.548Z,26.40
2022-09-07T16:47:20.967Z,26.30
2022-09-07T16:49:23.709Z,26.30
2022-09-07T16:51:26.422Z,26.20
2022-09-07T16:53:29.231Z,26.10
2022-09-07T16:55:32.021Z,26.00
2022-09-07T16:59:58.715Z,25.80
2022-09-07T17:02:01.609Z,25.70
2022-09-07T17:04:10.443Z,25.60
2022-09-07T17:06:14.560Z,25.50
2022-09-07T17:08:17.231Z,25.50
2022-09-07T17:10:19.905Z,25.40
2022-09-07T17:12:22.616Z,25.40
2022-09-07T17:14:28.213Z,25.30
2022-09-07T17:16:31.979Z,25.20
2022-09-07T17:20:58.645Z,25.10
2022-09-07T17:23:01.520Z,25.00
2022-09-07T17:25:04.919Z,24.90
2022-09-07T17:27:07.614Z,24.90
2022-09-07T17:29:10.458Z,24.80
2022-09-07T17:32:23.738Z,24.80
2022-09-07T17:33:38.289Z,24.70
2022-09-07T17:35:40.965Z,24.70
2022-09-07T17:37:43.650Z,24.70
2022-09-07T17:39:46.362Z,24.60
2022-09-07T17:41:52.451Z,24.50
2022-09-07T17:43:56.937Z,24.50
2022-09-07T17:46:03.023Z,24.40
2022-09-07T17:48:07.079Z,24.30
2022-09-07T17:50:10.607Z,24.30
2022-09-07T17:52:13.369Z,24.20
2022-09-07T17:54:19.075Z,24.10
2022-09-07T17:56:21.755Z,24.10
2022-09-07T17:58:24.419Z,24.10
2022-09-07T18:00:27.092Z,24.00
2022-09-07T18:02:29.771Z,24.00
2022-09-07T18:04:35.634Z,23.90
2022-09-07T18:06:38.465Z,23.90
2022-09-07T18:08:41.470Z,23.90
2022-09-07T18:13:06.883Z,23.80
2022-09-07T18:15:10.492Z,23.70
2022-09-07T18:17:13.193Z,23.70
2022-09-07T18:19:15.865Z,23.60
2022-09-07T18:21:21.264Z,23.60
2022-09-07T18:23:23.976Z,23.50
2022-09-07T18:25:26.866Z,23.50
2022-09-07T18:27:31.009Z,23.40
2022-09-07T18:29:34.544Z,23.40
2022-09-07T18:31:37.448Z,23.30
2022-09-07T18:33:40.143Z,23.30
2022-09-07T18:35:45.925Z,23.20
2022-09-07T18:37:50.074Z,23.20
2022-09-07T18:39:54.405Z,23.20
2022-09-07T18:41:57.219Z,23.10
2022-09-07T18:44:00.213Z,23.10
2022-09-07T18:46:08.375Z,23.00
2022-09-07T18:48:13.129Z,23.00
2022-09-07T18:50:16.878Z,23.00
2022-09-07T18:54:43.759Z,22.90
2022-09-07T18:56:46.443Z,22.90
2022-09-07T18:58:49.195Z,22.90
2022-09-07T19:00:57.522Z,22.80
2022-09-07T19:03:00.416Z,22.80
2022-09-07T19:07:29.654Z,22.70
2022-09-07T19:09:32.791Z,22.70
2022-09-07T19:11:36.821Z,22.60
2022-09-07T19:13:39.669Z,22.60
2022-09-07T19:15:42.324Z,22.60
2022-09-07T19:17:45.011Z,22.60
2022-09-07T19:19:48.271Z,22.60
2022-09-07T19:21:51.020Z,22.50
2022-09-07T19:23:54.729Z,22.50
2022-09-07T19:25:59.189Z,22.50
2022-09-07T19:28:03.454Z,22.50
2022-09-07T19:30:06.825Z,22.50
2022-09-07T19:32:11.715Z,22.40
2022-09-07T19:34:14.437Z,22.40
2022-09-07T19:36:17.102Z,22.40
2022-09-07T19:38:19.817Z,22.40
2022-09-07T19:40:24.684Z,22.40
2022-09-07T19:42:27.422Z,22.40
2022-09-07T19:44:31.455Z,22.30
2022-09-07T19:46:34.196Z,22.30
2022-09-07T19:48:36.947Z,22.30
2022-09-07T19:50:39.612Z,22.30
2022-09-07T19:52:42.499Z,22.20
2022-09-07T19:54:45.593Z,22.20
2022-09-07T19:56:48.321Z,22.20
2022-09-07T19:58:51.010Z,22.10
2022-09-07T20:00:55.077Z,22.10
2022-09-07T20:02:57.865Z,21.90
2022-09-07T20:05:00.635Z,21.90
2022-09-07T20:07:03.839Z,21.80
2022-09-07T20:09:06.848Z,21.70
2022-09-07T20:11:10.281Z,21.50
2022-09-07T20:13:12.963Z,21.50
2022-09-07T20:15:15.834Z,21.40
2022-09-07T20:17:19.860Z,21.40
2022-09-07T20:19:22.531Z,21.30
2022-09-07T20:21:25.965Z,21.20
2022-09-07T20:23:28.876Z,21.20
2022-09-07T20:25:31.556Z,21.20
2022-09-07T20:27:35.740Z,21.20
2022-09-07T20:29:38.411Z,21.30
2022-09-07T20:31:41.155Z,21.30
2022-09-07T20:33:46.046Z,21.30
2022-09-07T20:35:48.843Z,21.20
2022-09-07T20:37:51.528Z,21.20
2022-09-07T20:39:54.241Z,21.10
2022-09-07T20:41:56.992Z,21.10
2022-09-07T20:44:00.716Z,21.00
2022-09-07T20:46:03.379Z,21.00
2022-09-07T20:48:06.236Z,20.90
2022-09-07T20:50:11.067Z,20.90
2022-09-07T20:52:13.751Z,20.80
2022-09-07T20:54:16.431Z,20.80
2022-09-07T20:56:20.229Z,20.70
2022-09-07T20:58:22.921Z,20.60
2022-09-07T21:00:25.837Z,20.60
2022-09-07T21:02:28.583Z,20.60
2022-09-07T21:04:31.615Z,20.50
2022-09-07T21:06:35.721Z,20.40
2022-09-07T21:08:38.984Z,20.40
2022-09-07T21:10:41.732Z,20.40
2022-09-07T21:12:44.411Z,20.30
2022-09-07T21:14:47.069Z,20.30
2022-09-07T21:16:49.736Z,20.30
2022-09-07T21:18:56.285Z,20.30
2022-09-07T21:21:18.817Z,20.20
2022-09-07T21:23:24.001Z,20.10
2022-09-07T21:25:26.760Z,20.00
2022-09-07T21:27:38.097Z,20.00
2022-09-07T21:29:41.159Z,20.00
2022-09-07T21:31:43.882Z,19.90
2022-09-07T21:33:46.669Z,19.90
2022-09-07T21:35:49.339Z,19.90
2022-09-07T21:37:52.015Z,19.90
2022-09-07T21:39:56.092Z,19.70
2022-09-07T21:41:58.845Z,19.60
2022-09-07T21:44:02.563Z,19.40
2022-09-07T21:46:08.350Z,19.60
2022-09-07T21:48:11.079Z,19.60
2022-09-07T21:50:13.745Z,19.60
2022-09-07T21:52:16.428Z,19.70
2022-09-07T21:54:19.087Z,19.60
2022-09-07T21:56:23.100Z,19.70
2022-09-07T21:58:25.863Z,19.70
2022-09-07T22:00:28.533Z,19.70
2022-09-07T22:02:31.203Z,19.70
2022-09-07T22:04:33.881Z,19.70
2022-09-07T22:06:37.589Z,19.70
2022-09-07T22:08:40.961Z,19.60
2022-09-07T22:10:43.673Z,19.60
2022-09-07T22:12:47.715Z,19.60
2022-09-07T22:14:50.409Z,19.50
2022-09-07T22:16:53.113Z,19.50
2022-09-07T22:18:55.811Z,19.50
2022-09-07T22:21:02.607Z,19.60
2022-09-07T22:23:05.980Z,19.50
2022-09-07T22:25:09.312Z,19.50
2022-09-07T22:27:11.991Z,19.50
2022-09-07T22:29:15.991Z,19.60
2022-09-07T22:31:19.740Z,19.50
2022-09-07T22:33:22.467Z,19.60
2022-09-07T22:35:25.292Z,19.50
2022-09-07T22:37:28.356Z,19.50
2022-09-07T22:39:31.056Z,19.30
2022-09-07T22:41:34.875Z,19.10
2022-09-07T22:43:37.757Z,19.00
2022-09-07T22:45:41.751Z,19.00
2022-09-07T22:47:44.441Z,18.70
2022-09-07T22:49:47.111Z,18.80
2022-09-07T22:51:49.785Z,18.70
2022-09-07T22:53:52.464Z,18.80
2022-09-07T22:55:55.195Z,18.80
2022-09-07T22:57:57.880Z,18.80
2022-09-07T23:00:00.543Z,18.80
2022-09-07T23:02:04.696Z,18.80
2022-09-07T23:04:07.614Z,18.70
2022-09-07T23:06:20.017Z,18.70
2022-09-07T23:08:22.709Z,18.70
2022-09-07T23:10:25.397Z,18.70
2022-09-07T23:12:28.072Z,18.70
2022-09-07T23:14:30.881Z,18.80
2022-09-07T23:16:33.596Z,18.80
2022-09-07T23:18:39.413Z,18.60
2022-09-07T23:20:42.105Z,18.50
2022-09-07T23:22:44.924Z,18.40
2022-09-07T23:24:47.603Z,18.40
2022-09-07T23:26:50.336Z,18.20
2022-09-07T23:28:53.532Z,18.20
2022-09-07T23:30:56.421Z,18.20
2022-09-07T23:32:59.334Z,18.20
2022-09-07T23:35:03.724Z,18.30
2022-09-07T23:37:06.428Z,18.20
2022-09-07T23:39:09.465Z,18.10
2022-09-07T23:41:13.815Z,18.20
2022-09-07T23:43:16.509Z,18.10
2022-09-07T23:45:19.172Z,18.10
2022-09-07T23:47:21.853Z,18.10
2022-09-07T23:49:24.563Z,18.10
2022-09-07T23:51:28.573Z,18.10
2022-09-07T23:53:31.768Z,18.10
2022-09-07T23:55:34.504Z,18.00
2022-09-07T23:57:37.353Z,18.00
2022-09-07T23:59:40.024Z,17.90
